Terminal Aerodrome Forecast
Issued by NWS

Home | Current Version | Previous Version | Text Only | Print | Product List | Glossary On
Versions: 1 2 3 4 5 6 7 8 9 10 11 12 13 14 15 16 17 18 19 20
000
FTUS42 KJAX 221400 AAB
TAFCRG
TAF AMD
KCRG 221443Z 2215/2312 16010KT P6SM SCT007 OVC050
     FM221800 18008KT P6SM VCSH SCT008 OVC025
     FM222300 18004KT 4SM BR VCSH OVC004=

USA.gov is the U.S. government's official web portal to all federal, state and local government web resources and services.